createdAt,value
2023-05-02T00:00:48.067Z,70.06
2023-05-02T00:03:19.691Z,69.87
2023-05-02T00:05:50.092Z,69.79
2023-05-02T00:08:20.645Z,69.89
2023-05-02T00:10:51.294Z,69.87
2023-05-02T00:13:21.738Z,69.91
2023-05-02T00:15:52.101Z,69.73
2023-05-02T00:18:22.524Z,69.88
2023-05-02T00:20:53.449Z,69.91
2023-05-02T00:23:23.939Z,69.95
2023-05-02T00:25:54.568Z,69.63
2023-05-02T00:28:25.104Z,69.82
2023-05-02T00:30:55.895Z,69.59
2023-05-02T00:33:26.426Z,69.93
2023-05-02T00:35:56.505Z,69.81
2023-05-02T00:38:26.791Z,70.04
2023-05-02T00:40:57.129Z,69.83
2023-05-02T00:43:28.376Z,70.14
2023-05-02T00:45:58.316Z,69.73
2023-05-02T00:48:28.861Z,69.78
2023-05-02T00:50:59.864Z,69.64
2023-05-02T00:53:30.158Z,69.63
2023-05-02T00:56:04.642Z,69.52
2023-05-02T00:58:36.837Z,70.08
2023-05-02T01:01:32.664Z,69.92
2023-05-02T01:04:03.361Z,70.35
2023-05-02T01:06:45.711Z,70.17
2023-05-02T01:09:21.699Z,70.28
2023-05-02T01:12:12.698Z,70.35
2023-05-02T01:14:47.973Z,70.63
2023-05-02T01:17:19.890Z,70.29
2023-05-02T01:20:01.151Z,70.25
2023-05-02T01:22:33.161Z,70.19
2023-05-02T01:25:41.713Z,70.50
2023-05-02T01:28:36.136Z,70.45
2023-05-02T01:31:08.854Z,70.40
2023-05-02T01:33:41.233Z,70.72
2023-05-02T01:36:12.323Z,70.88
2023-05-02T01:38:45.211Z,71.27
2023-05-02T01:41:16.798Z,71.08
2023-05-02T01:43:48.518Z,70.95
2023-05-02T01:46:19.106Z,71.06
2023-05-02T01:48:51.906Z,70.83
2023-05-02T01:51:24.201Z,71.11
2023-05-02T01:53:55.904Z,70.77
2023-05-02T01:56:27.878Z,70.73
2023-05-02T01:58:59.497Z,70.61
2023-05-02T02:01:33.508Z,70.79
2023-05-02T02:04:07.580Z,71.00
2023-05-02T02:06:38.833Z,70.88
2023-05-02T02:09:09.436Z,70.65
2023-05-02T02:12:09.955Z,70.63
2023-05-02T02:14:42.461Z,70.64
2023-05-02T02:17:21.056Z,71.06
2023-05-02T02:19:54.796Z,70.57
2023-05-02T02:22:29.814Z,70.61
2023-05-02T02:25:01.984Z,71.00
2023-05-02T02:27:32.527Z,70.81
2023-05-02T02:30:03.863Z,70.61
2023-05-02T02:32:34.153Z,70.72
2023-05-02T02:35:08.266Z,70.66
2023-05-02T02:37:45.581Z,70.79
2023-05-02T02:40:34.609Z,71.06
2023-05-02T02:43:21.275Z,70.02
2023-05-02T02:46:11.865Z,69.98
2023-05-02T02:48:51.450Z,70.15
2023-05-02T02:51:40.604Z,69.84
2023-05-02T02:54:34.689Z,70.34
2023-05-02T02:57:17.925Z,69.97
2023-05-02T03:00:16.559Z,70.15
2023-05-02T03:02:49.426Z,69.76
2023-05-02T03:05:20.317Z,69.41
2023-05-02T03:07:51.010Z,69.28
2023-05-02T03:10:25.267Z,69.27
2023-05-02T03:12:58.750Z,68.98
2023-05-02T03:15:40.073Z,69.08
2023-05-02T03:18:11.787Z,68.98
2023-05-02T03:20:43.185Z,68.44
2023-05-02T03:23:13.868Z,67.95
2023-05-02T03:25:45.482Z,67.80
2023-05-02T03:28:22.232Z,67.98
2023-05-02T03:30:54.581Z,67.61
2023-05-02T03:33:26.189Z,67.65
2023-05-02T03:35:56.467Z,67.67
2023-05-02T03:38:27.120Z,67.63
2023-05-02T03:40:59.508Z,67.60
2023-05-02T03:43:30.255Z,67.30
2023-05-02T03:46:01.113Z,67.84
2023-05-02T03:48:32.044Z,67.39
2023-05-02T03:51:03.123Z,67.25
2023-05-02T03:53:39.866Z,67.62
2023-05-02T03:56:10.880Z,67.30
2023-05-02T03:58:52.568Z,67.56
2023-05-02T04:01:26.729Z,66.90
2023-05-02T04:03:58.429Z,67.04
2023-05-02T04:06:32.803Z,66.77
2023-05-02T04:09:07.461Z,66.55
2023-05-02T04:11:54.607Z,66.37
2023-05-02T04:14:26.062Z,66.26
2023-05-02T04:16:58.496Z,65.86
2023-05-02T04:19:46.132Z,65.67
2023-05-02T04:22:17.478Z,65.50
2023-05-02T04:24:53.133Z,65.30
2023-05-02T04:27:23.929Z,65.11
2023-05-02T04:29:54.450Z,65.18
2023-05-02T04:32:25.792Z,65.22
2023-05-02T04:34:57.222Z,65.02
2023-05-02T04:37:28.777Z,64.71
2023-05-02T04:39:59.762Z,64.97
2023-05-02T04:42:33.451Z,64.79
2023-05-02T04:45:15.723Z,64.81
2023-05-02T04:47:47.749Z,64.54
2023-05-02T04:50:18.178Z,64.42
2023-05-02T04:52:48.704Z,64.67
2023-05-02T04:55:19.049Z,64.66
2023-05-02T04:57:49.412Z,64.84
2023-05-02T05:00:20.459Z,65.11
2023-05-02T05:02:51.065Z,65.10
2023-05-02T05:05:21.567Z,65.23
2023-05-02T05:07:52.469Z,65.21
2023-05-02T05:10:24.881Z,65.36
2023-05-02T05:12:55.894Z,65.45
2023-05-02T05:15:28.402Z,65.42
2023-05-02T05:18:01.546Z,65.55
2023-05-02T05:20:31.971Z,65.33
2023-05-02T05:23:04.399Z,65.40
2023-05-02T05:25:36.337Z,65.32
2023-05-02T05:28:06.756Z,65.62
2023-05-02T05:30:39.308Z,65.36
2023-05-02T05:33:13.275Z,65.52
2023-05-02T05:35:43.766Z,65.35
2023-05-02T05:38:14.208Z,65.39
2023-05-02T05:40:47.304Z,65.05
2023-05-02T05:43:17.886Z,64.92
2023-05-02T05:45:48.050Z,65.09
2023-05-02T05:48:19.292Z,65.08
2023-05-02T05:50:49.992Z,64.91
2023-05-02T05:53:20.610Z,64.76
2023-05-02T05:55:52.363Z,64.75
2023-05-02T05:58:22.911Z,65.01
2023-05-02T06:00:55.777Z,64.99
2023-05-02T06:03:26.772Z,65.05
2023-05-02T06:05:57.522Z,65.26
2023-05-02T06:08:28.382Z,65.29
2023-05-02T06:10:59.126Z,64.93
2023-05-02T06:13:29.592Z,64.73
2023-05-02T06:16:04.990Z,65.16
2023-05-02T06:18:35.569Z,65.03
2023-05-02T06:21:10.932Z,65.25
2023-05-02T06:23:41.789Z,65.39
2023-05-02T06:26:12.648Z,65.17
2023-05-02T06:28:43.254Z,64.68
2023-05-02T06:31:13.659Z,64.99
2023-05-02T06:33:43.971Z,64.59
2023-05-02T06:36:14.805Z,64.86
2023-05-02T06:38:45.078Z,64.89
2023-05-02T06:41:18.809Z,64.73
2023-05-02T06:43:49.225Z,64.58
2023-05-02T06:46:21.182Z,64.78
2023-05-02T06:48:51.719Z,64.57
2023-05-02T06:51:23.546Z,64.11
2023-05-02T06:53:53.957Z,64.22
2023-05-02T06:56:24.278Z,64.11
2023-05-02T06:58:55.237Z,64.03
2023-05-02T07:01:25.595Z,64.12
2023-05-02T07:03:56.737Z,64.13
2023-05-02T07:06:27.515Z,64.00
2023-05-02T07:08:57.976Z,64.43
2023-05-02T07:11:28.694Z,63.77
2023-05-02T07:14:00.235Z,63.84
2023-05-02T07:16:31.155Z,64.09
2023-05-02T07:19:01.871Z,64.20
2023-05-02T07:21:32.117Z,64.31
2023-05-02T07:24:02.567Z,64.37
2023-05-02T07:26:32.981Z,64.31
2023-05-02T07:29:04.149Z,64.22
2023-05-02T07:31:34.404Z,64.31
2023-05-02T07:34:04.897Z,64.48
2023-05-02T07:36:35.353Z,64.37
2023-05-02T07:39:05.686Z,64.44
2023-05-02T07:41:35.879Z,64.49
2023-05-02T07:44:05.996Z,64.49
2023-05-02T07:46:36.228Z,64.77
2023-05-02T07:49:06.662Z,64.96
2023-05-02T07:51:36.954Z,65.05
2023-05-02T07:54:20.831Z,65.08
2023-05-02T07:56:54.091Z,65.29
2023-05-02T07:59:24.374Z,65.24
2023-05-02T08:01:54.618Z,65.12
2023-05-02T08:04:25.054Z,65.54
2023-05-02T08:06:55.652Z,65.58
2023-05-02T08:09:28.445Z,65.27
2023-05-02T08:11:58.697Z,65.50
2023-05-02T08:14:28.804Z,65.45
2023-05-02T08:16:59.079Z,65.71
2023-05-02T08:19:29.926Z,65.61
2023-05-02T08:22:00.296Z,65.61
2023-05-02T08:24:30.578Z,65.52
2023-05-02T08:27:00.860Z,65.78
2023-05-02T08:29:31.054Z,65.81
2023-05-02T08:32:01.663Z,65.57
2023-05-02T08:34:32.051Z,65.65
2023-05-02T08:37:02.909Z,65.46
2023-05-02T08:39:35.997Z,65.55
2023-05-02T08:42:11.008Z,65.40
2023-05-02T08:44:41.315Z,65.52
2023-05-02T08:47:17.144Z,65.61
2023-05-02T08:49:49.080Z,65.52
2023-05-02T08:52:22.994Z,65.32
2023-05-02T08:54:54.712Z,65.49
2023-05-02T08:57:25.003Z,65.58
2023-05-02T08:59:55.441Z,65.50
2023-05-02T09:02:47.465Z,65.43
2023-05-02T09:05:23.509Z,65.64
2023-05-02T09:07:55.003Z,65.55
2023-05-02T09:10:28.844Z,65.40
2023-05-02T09:12:59.318Z,65.52
2023-05-02T09:15:29.605Z,65.62
2023-05-02T09:18:00.061Z,65.47
2023-05-02T09:20:30.396Z,65.24
2023-05-02T09:23:00.734Z,65.34
2023-05-02T09:25:40.244Z,64.78
2023-05-02T09:28:10.607Z,64.93
2023-05-02T09:30:41.056Z,64.72
2023-05-02T09:33:11.496Z,64.84
2023-05-02T09:35:58.044Z,64.85
2023-05-02T09:38:28.439Z,65.07
2023-05-02T09:40:59.208Z,64.70
2023-05-02T09:43:29.961Z,64.94
2023-05-02T09:46:18.885Z,64.99
2023-05-02T09:49:01.633Z,65.01
2023-05-02T09:51:31.887Z,64.98
2023-05-02T09:54:02.305Z,65.05
2023-05-02T09:56:32.652Z,65.09
2023-05-02T09:59:19.271Z,65.01
2023-05-02T10:02:01.140Z,64.85
2023-05-02T10:04:34.123Z,65.00
2023-05-02T10:07:06.217Z,65.09
2023-05-02T10:09:38.795Z,65.16
2023-05-02T10:12:10.653Z,65.17
2023-05-02T10:14:49.106Z,65.20
2023-05-02T10:17:33.431Z,65.43
2023-05-02T10:20:06.240Z,65.50
2023-05-02T10:22:37.383Z,65.64
2023-05-02T10:25:08.604Z,66.01
2023-05-02T10:27:40.045Z,65.89
2023-05-02T10:30:11.173Z,66.05
2023-05-02T10:32:41.421Z,66.44
2023-05-02T10:35:12.985Z,66.19
2023-05-02T10:37:44.201Z,66.40
2023-05-02T10:40:17.966Z,66.65
2023-05-02T10:42:53.552Z,66.50
2023-05-02T10:45:37.673Z,66.70
2023-05-02T10:48:17.036Z,66.66
2023-05-02T10:50:54.026Z,67.03
2023-05-02T10:53:34.457Z,66.91
2023-05-02T10:56:30.692Z,65.20
2023-05-02T10:59:30.879Z,64.40
2023-05-02T11:02:01.361Z,63.91
2023-05-02T11:05:08.928Z,63.70
2023-05-02T11:07:40.513Z,63.10
2023-05-02T11:10:22.816Z,62.61
2023-05-02T11:13:03.371Z,63.33
2023-05-02T11:15:35.686Z,62.44
2023-05-02T11:18:16.657Z,62.22
2023-05-02T11:20:48.226Z,62.50
2023-05-02T11:23:18.384Z,62.72
2023-05-02T11:25:50.805Z,63.09
2023-05-02T11:28:44.827Z,63.12
2023-05-02T11:32:01.580Z,62.81
2023-05-02T11:34:32.040Z,63.08
2023-05-02T11:37:02.709Z,62.75
2023-05-02T11:39:32.979Z,62.69
2023-05-02T11:42:03.387Z,62.40
2023-05-02T11:44:33.783Z,62.80
2023-05-02T11:47:05.093Z,62.82
2023-05-02T11:49:34.994Z,63.12
2023-05-02T11:52:05.127Z,62.78
2023-05-02T11:54:35.426Z,63.47
2023-05-02T11:57:05.815Z,63.27
2023-05-02T12:00:00.782Z,63.16
2023-05-02T12:02:42.079Z,63.34
2023-05-02T12:05:13.420Z,63.30
2023-05-02T12:07:48.566Z,63.41
2023-05-02T12:10:18.770Z,63.47
2023-05-02T12:12:49.053Z,63.23
2023-05-02T12:15:20.029Z,63.60
2023-05-02T12:17:54.755Z,63.29
2023-05-02T12:20:25.453Z,63.81
2023-05-02T12:22:55.760Z,63.42
2023-05-02T12:25:26.021Z,63.71
2023-05-02T12:28:06.331Z,63.77
2023-05-02T12:30:37.150Z,63.79
2023-05-02T12:33:08.938Z,63.44
2023-05-02T12:35:39.478Z,63.63
2023-05-02T12:38:17.176Z,63.61
2023-05-02T12:41:00.922Z,63.38
2023-05-02T12:43:48.693Z,63.27
2023-05-02T12:46:19.009Z,63.14
2023-05-02T12:48:49.282Z,63.03
2023-05-02T12:51:29.382Z,62.99
2023-05-02T12:53:59.539Z,63.02
2023-05-02T12:56:34.898Z,62.98
2023-05-02T12:59:07.634Z,62.95
2023-05-02T13:01:38.525Z,63.22
2023-05-02T13:04:08.917Z,63.03
2023-05-02T13:06:41.433Z,63.05
2023-05-02T13:09:11.709Z,62.97
2023-05-02T13:11:42.111Z,63.33
2023-05-02T13:14:13.944Z,63.50
2023-05-02T13:16:44.256Z,63.27
2023-05-02T13:19:14.596Z,63.78
2023-05-02T13:21:45.097Z,63.96
2023-05-02T13:24:15.677Z,63.63
2023-05-02T13:26:46.763Z,63.79
2023-05-02T13:29:17.082Z,63.68
2023-05-02T13:31:47.279Z,64.29
2023-05-02T13:34:17.582Z,64.27
2023-05-02T13:36:48.564Z,64.87
2023-05-02T13:39:18.912Z,64.79
2023-05-02T13:41:49.174Z,64.76
2023-05-02T13:59:45.022Z,66.36
2023-05-02T14:02:15.624Z,66.07
2023-05-02T14:04:46.106Z,66.11
2023-05-02T14:07:16.542Z,66.26
2023-05-02T14:09:46.972Z,65.89
2023-05-02T14:12:17.212Z,65.83
2023-05-02T14:14:47.323Z,65.76
2023-05-02T14:17:17.719Z,65.74
2023-05-02T14:19:48.011Z,65.85
2023-05-02T14:22:18.575Z,65.48
2023-05-02T14:24:48.814Z,65.43
2023-05-02T14:27:22.692Z,65.65
2023-05-02T14:29:53.188Z,65.64
2023-05-02T14:32:24.059Z,65.65
2023-05-02T14:34:54.402Z,65.63
2023-05-02T14:37:25.456Z,65.45
2023-05-02T14:39:58.509Z,65.87
2023-05-02T14:42:28.952Z,65.62
2023-05-02T14:44:59.780Z,65.46
2023-05-02T14:47:33.519Z,65.50
2023-05-02T14:50:05.706Z,65.58
2023-05-02T14:52:36.051Z,65.23
2023-05-02T14:55:07.096Z,65.41
2023-05-02T14:57:37.579Z,65.59
2023-05-02T15:00:15.108Z,65.88
2023-05-02T15:02:45.517Z,65.84
2023-05-02T15:05:15.888Z,65.48
2023-05-02T15:07:46.312Z,65.74
2023-05-02T15:10:16.535Z,65.73
2023-05-02T15:15:54.038Z,65.79
2023-05-02T15:18:24.463Z,66.10
2023-05-02T15:20:54.760Z,66.13
2023-05-02T15:23:25.058Z,65.98
2023-05-02T15:25:55.327Z,66.30
2023-05-02T15:28:25.634Z,66.18
2023-05-02T15:30:55.973Z,66.14
2023-05-02T15:33:26.270Z,66.33
2023-05-02T15:36:03.317Z,66.37
2023-05-02T15:38:33.757Z,66.37
2023-05-02T15:41:04.111Z,66.31
2023-05-02T15:43:34.634Z,66.33
2023-05-02T15:46:05.143Z,66.74
2023-05-02T15:48:37.143Z,67.14
2023-05-02T15:51:11.525Z,67.30
2023-05-02T15:53:44.864Z,67.27
2023-05-02T15:56:15.457Z,66.90
2023-05-02T15:58:46.108Z,66.88
2023-05-02T16:01:16.506Z,66.81
2023-05-02T16:03:46.968Z,66.84
2023-05-02T16:06:18.506Z,66.43
2023-05-02T16:08:48.978Z,66.69
2023-05-02T16:11:19.372Z,66.79
2023-05-02T16:13:49.609Z,66.95
2023-05-02T16:16:20.113Z,67.19
2023-05-02T16:18:50.610Z,66.96
2023-05-02T16:21:21.139Z,67.24
2023-05-02T16:23:51.604Z,67.33
2023-05-02T16:26:23.216Z,67.30
2023-05-02T16:28:53.619Z,67.34
2023-05-02T16:31:23.864Z,67.15
2023-05-02T16:33:54.326Z,67.36
2023-05-02T16:36:25.173Z,67.19
2023-05-02T16:38:55.631Z,67.62
2023-05-02T16:41:25.984Z,67.69
2023-05-02T16:43:56.274Z,67.77
2023-05-02T16:46:26.416Z,67.84
2023-05-02T16:48:56.757Z,67.96
2023-05-02T16:51:26.888Z,68.04
2023-05-02T16:53:57.186Z,68.02
2023-05-02T16:56:27.352Z,68.58
2023-05-02T16:58:58.057Z,68.87
2023-05-02T17:01:28.400Z,69.85
2023-05-02T17:03:58.794Z,69.85
2023-05-02T17:06:29.081Z,70.28
2023-05-02T17:09:00.118Z,69.57
2023-05-02T17:11:30.942Z,70.37
2023-05-02T17:14:01.604Z,70.04
2023-05-02T17:16:32.203Z,69.86
2023-05-02T17:19:03.065Z,70.29
2023-05-02T17:21:33.834Z,70.40
2023-05-02T17:24:04.473Z,70.13
2023-05-02T17:26:34.870Z,70.34
2023-05-02T17:29:05.314Z,70.24
2023-05-02T17:31:35.711Z,70.34
2023-05-02T17:34:06.122Z,70.21
2023-05-02T17:36:36.762Z,70.00
2023-05-02T17:39:07.416Z,69.86
2023-05-02T17:41:40.929Z,69.78
2023-05-02T17:44:11.172Z,69.55
2023-05-02T17:46:41.547Z,69.59
2023-05-02T17:49:11.926Z,69.39
2023-05-02T17:51:42.353Z,69.41
2023-05-02T17:54:12.979Z,69.38
2023-05-02T17:56:43.331Z,69.41
2023-05-02T17:59:14.178Z,69.76
2023-05-02T18:01:44.581Z,70.00
2023-05-02T18:04:15.111Z,69.87
2023-05-02T18:06:45.663Z,69.88
2023-05-02T18:09:16.070Z,69.77
2023-05-02T18:11:46.446Z,69.72
2023-05-02T18:14:17.765Z,69.84
2023-05-02T18:16:51.533Z,69.94
2023-05-02T18:19:21.826Z,69.73
2023-05-02T18:21:52.313Z,69.74
2023-05-02T18:24:22.804Z,69.90
2023-05-02T18:26:53.327Z,69.71
2023-05-02T18:29:23.621Z,69.82
2023-05-02T18:31:54.923Z,69.80
2023-05-02T18:34:25.279Z,69.84
2023-05-02T18:36:55.762Z,69.90
2023-05-02T18:39:26.051Z,69.75
2023-05-02T18:41:56.221Z,69.53
2023-05-02T18:44:26.929Z,69.33
2023-05-02T18:46:57.405Z,69.59
2023-05-02T18:49:28.724Z,69.84
2023-05-02T18:51:59.544Z,69.81
2023-05-02T18:54:30.431Z,69.77
2023-05-02T18:57:01.230Z,69.65
2023-05-02T18:59:32.133Z,70.01
2023-05-02T19:02:03.219Z,70.12
2023-05-02T19:04:34.246Z,69.91
2023-05-02T19:07:04.339Z,69.91
2023-05-02T19:09:34.499Z,69.90
2023-05-02T19:12:04.773Z,70.24
2023-05-02T19:14:44.795Z,69.73
2023-05-02T19:17:15.413Z,70.10
2023-05-02T19:19:45.915Z,69.96
2023-05-02T19:22:17.286Z,69.88
2023-05-02T19:24:47.843Z,70.04
2023-05-02T19:27:18.213Z,69.91
2023-05-02T19:29:48.531Z,70.13
2023-05-02T19:32:18.620Z,70.01
2023-05-02T19:34:49.620Z,70.08
2023-05-02T19:37:19.955Z,70.01
2023-05-02T19:39:50.187Z,70.14
2023-05-02T19:42:20.452Z,69.93
2023-05-02T19:44:51.809Z,69.95
2023-05-02T19:47:21.645Z,70.22
2023-05-02T19:49:53.886Z,70.01
2023-05-02T19:52:24.174Z,70.02
2023-05-02T19:54:54.411Z,69.71
2023-05-02T19:57:24.814Z,69.64
2023-05-02T19:59:55.377Z,69.66
2023-05-02T20:02:26.406Z,69.49
2023-05-02T20:04:57.370Z,69.87
2023-05-02T20:07:27.754Z,69.78
2023-05-02T20:09:57.905Z,69.69
2023-05-02T20:12:28.274Z,69.45
2023-05-02T20:14:58.686Z,69.69
2023-05-02T20:17:29.633Z,69.71
2023-05-02T20:20:00.246Z,69.66
2023-05-02T20:22:30.581Z,69.59
2023-05-02T20:25:00.894Z,70.02
2023-05-02T20:27:31.003Z,69.65
2023-05-02T20:30:01.698Z,69.64
2023-05-02T20:32:32.218Z,69.63
2023-05-02T20:35:02.687Z,69.76
2023-05-02T20:37:33.105Z,69.67
2023-05-02T20:40:04.715Z,69.96
2023-05-02T20:42:35.856Z,69.66
2023-05-02T20:45:09.537Z,69.94
2023-05-02T20:47:39.949Z,70.06
2023-05-02T20:50:11.860Z,70.00
2023-05-02T20:52:42.117Z,70.19
2023-05-02T20:55:13.972Z,70.02
2023-05-02T20:57:44.312Z,70.07
2023-05-02T21:00:16.107Z,70.30
2023-05-02T21:02:46.408Z,70.37
2023-05-02T21:05:16.843Z,70.18
2023-05-02T21:07:47.385Z,70.56
2023-05-02T21:10:18.333Z,70.48
2023-05-02T21:12:48.623Z,70.32
2023-05-02T21:15:19.178Z,70.33
2023-05-02T21:17:49.560Z,70.39
2023-05-02T21:20:20.008Z,70.80
2023-05-02T21:22:50.238Z,70.62
2023-05-02T21:25:20.616Z,70.75
2023-05-02T21:27:50.758Z,71.17
2023-05-02T21:30:21.667Z,71.02
2023-05-02T21:32:52.032Z,71.03
2023-05-02T21:35:22.582Z,71.24
2023-05-02T21:37:52.982Z,71.44
2023-05-02T21:40:23.172Z,71.56
2023-05-02T21:42:53.385Z,71.42
2023-05-02T21:45:23.788Z,71.83
2023-05-02T21:47:55.038Z,71.42
2023-05-02T21:50:25.313Z,71.69
2023-05-02T21:52:55.863Z,71.71
2023-05-02T21:55:26.322Z,71.96
2023-05-02T21:57:56.530Z,71.64
2023-05-02T22:00:27.134Z,71.95
2023-05-02T22:02:57.795Z,71.82
2023-05-02T22:05:30.107Z,71.37
2023-05-02T22:08:03.225Z,71.63
2023-05-02T22:10:33.715Z,72.05
2023-05-02T22:13:05.649Z,71.93
2023-05-02T22:15:35.961Z,71.89
2023-05-02T22:18:09.033Z,72.10
2023-05-02T22:20:40.435Z,72.04
2023-05-02T22:23:10.682Z,72.07
2023-05-02T22:25:47.043Z,72.45
2023-05-02T22:28:17.533Z,72.49
2023-05-02T22:30:47.867Z,72.65
2023-05-02T22:33:18.300Z,72.50
2023-05-02T22:35:48.623Z,72.47
2023-05-02T22:38:22.228Z,72.24
2023-05-02T22:40:52.942Z,72.53
2023-05-02T22:43:23.256Z,72.31
2023-05-02T22:45:54.287Z,72.43
2023-05-02T22:48:25.687Z,72.46
2023-05-02T22:50:56.258Z,72.25
2023-05-02T22:53:27.424Z,72.22
2023-05-02T22:55:58.477Z,72.26
2023-05-02T23:01:02.219Z,72.40
2023-05-02T23:03:32.684Z,72.48
2023-05-02T23:06:03.354Z,72.33
2023-05-02T23:08:33.612Z,72.68
2023-05-02T23:11:03.879Z,72.91
2023-05-02T23:13:34.147Z,72.89
2023-05-02T23:16:04.823Z,72.78
2023-05-02T23:18:35.064Z,72.53
2023-05-02T23:21:07.108Z,72.98
2023-05-02T23:23:37.398Z,72.82
2023-05-02T23:26:10.242Z,72.58
2023-05-02T23:28:41.553Z,72.46
2023-05-02T23:31:12.522Z,72.41
2023-05-02T23:33:45.235Z,72.73
2023-05-02T23:36:15.676Z,72.51
2023-05-02T23:38:46.067Z,72.37
2023-05-02T23:41:16.600Z,72.44
2023-05-02T23:43:47.464Z,72.39
2023-05-02T23:46:17.835Z,72.53
2023-05-02T23:48:48.257Z,72.46
2023-05-02T23:51:18.567Z,72.63
2023-05-02T23:53:48.891Z,72.29
2023-05-02T23:56:19.273Z,72.50
2023-05-02T23:58:49.604Z,72.88
